Main page
METAR-TAF:

METAR-TAF

Airports :

Rovaniemi Airport

Rovaniemi, Finland

latitude: 66-34N, longitude: 025-50E, elevation: 197 m

Current weather observation

The report was made 38 minutes ago, at 13:20 UTC
Wind 5 kt from the West/Southwest
Temperature -9°C
Humidity 100%
Pressure 984 hPa
Visibility 10 km or more
no clouds below 1500 m and no cumulonimbus

METAR: EFRO 241320Z AUTO 24005KT CAVOK M09/M09 Q0984

Time: 15:58 (13:58 UTC)

Forecast

The report was made 2 hours and 29 minutes ago, at 11:29 UTC
Forecast valid from 24 at 12 UTC to 25 at 12 UTC
Wind 6 kt from the West/Southwest
Visibility 10 km or more
no clouds below 1500 m and no cumulonimbus
Temporary
from 25 at 07 UTC to 25 at 12 UTC
Visibility: 2000 m
Broken clouds at a height of 500 ft
light snow

TAF: EFRO 241129Z 2412/2512 25006KT CAVOK TEMPO 2507/2512 2000 -SN BKN005

Weather observations and forecasts of more than 4000 airports (METAR and TAF reports).

The available stations are represented by yellow and red dots on the map.

Hover mouse over dot to see the name of the station.

Then click to see weather observations and forecasts.

To change the map : click on the green buttons with a black cross to zoom in, on the green button with a dash to zoom out, or on the green arrows for adjacent maps.


METAR-TAF: